Time;durP1;ratioP1;P1;durP2;ratioP2;P2;SDS_P1;SDS_P2;PMS_P1;PMS_P2;Temp;Humidity;BMP_temperature;BMP_pressure;BME280_temperature;BME280_humidity;BME280_pressure;Samples;Min_cycle;Max_cycle;Signal;HPM_P1;HPM_P2
2024/01/07 00:00:13;;;;;;;8.70;4.00;;;1.50;99.90;;;;;;5037112;28;20029;-75
2024/01/07 00:02:39;;;;;;;7.32;3.53;;;1.50;99.90;;;;;;5038046;28;20021;-75
2024/01/07 00:05:08;;;;;;;7.22;3.70;;;1.40;99.90;;;;;;5038225;28;20032;-75
2024/01/07 00:07:33;;;;;;;8.18;4.03;;;1.50;99.90;;;;;;5038513;28;20036;-75
2024/01/07 00:09:59;;;;;;;8.35;3.80;;;1.50;99.90;;;;;;5037899;28;20026;-75
2024/01/07 00:12:25;;;;;;;8.00;3.92;;;1.40;99.90;;;;;;5037025;28;20021;-76
2024/01/07 00:14:51;;;;;;;9.63;4.53;;;1.40;99.90;;;;;;5037575;28;20020;-76
2024/01/07 00:17:16;;;;;;;10.63;4.85;;;1.40;99.90;;;;;;5038574;28;20022;-76
2024/01/07 00:19:42;;;;;;;10.02;4.50;;;1.40;99.90;;;;;;5036799;28;20026;-76
2024/01/07 00:22:07;;;;;;;9.98;4.38;;;1.40;99.90;;;;;;5037081;28;20035;-76
2024/01/07 00:24:33;;;;;;;8.52;4.40;;;1.40;99.90;;;;;;5037863;28;20036;-75
2024/01/07 00:26:59;;;;;;;8.57;4.10;;;1.40;99.90;;;;;;5038259;28;20099;-76
2024/01/07 00:29:24;;;;;;;9.48;4.22;;;1.40;99.90;;;;;;5036478;28;20017;-76
2024/01/07 00:31:50;;;;;;;10.38;4.22;;;1.40;99.90;;;;;;5037109;28;20021;-76
2024/01/07 00:34:15;;;;;;;10.30;4.78;;;1.40;99.90;;;;;;5037521;28;20385;-76
2024/01/07 00:36:41;;;;;;;8.90;4.53;;;1.30;99.90;;;;;;5038652;28;20021;-76
2024/01/07 00:39:09;;;;;;;10.55;4.28;;;2.90;99.90;;;;;;5036607;28;20172;-76
2024/01/07 00:41:35;;;;;;;10.90;4.45;;;1.30;99.90;;;;;;5037414;28;20021;-76
2024/01/07 00:44:01;;;;;;;11.65;5.20;;;2.60;99.90;;;;;;5038424;28;20109;-76
2024/01/07 00:46:26;;;;;;;10.05;5.20;;;1.30;99.90;;;;;;5037331;28;20105;-76
2024/01/07 00:48:52;;;;;;;9.30;4.28;;;1.30;99.90;;;;;;5037601;28;20477;-76
2024/01/07 00:51:18;;;;;;;9.48;3.92;;;1.20;99.90;;;;;;5038071;28;20025;-75
2024/01/07 00:53:44;;;;;;;10.55;4.22;;;1.20;99.90;;;;;;5036481;28;20085;-76
2024/01/07 00:56:09;;;;;;;8.95;4.78;;;1.20;99.90;;;;;;5036837;28;20439;-76
2024/01/07 00:58:36;;;;;;;9.88;4.53;;;1.30;99.90;;;;;;5037080;28;20033;-76
2024/01/07 01:01:02;;;;;;;11.23;4.97;;;1.20;99.90;;;;;;5036587;28;20022;-76
2024/01/07 01:03:27;;;;;;;11.15;4.68;;;1.30;99.90;;;;;;5037972;28;20036;-76
2024/01/07 01:05:53;;;;;;;9.35;4.65;;;1.30;99.90;;;;;;5036989;28;20535;-76
2024/01/07 01:08:19;;;;;;;11.05;4.82;;;1.30;99.90;;;;;;5038621;28;20049;-75
2024/01/07 01:10:44;;;;;;;10.23;4.88;;;1.20;99.90;;;;;;5038611;28;20493;-75
2024/01/07 01:13:10;;;;;;;9.25;4.57;;;1.20;99.90;;;;;;5038304;28;20072;-76
2024/01/07 01:15:38;;;;;;;9.60;4.72;;;1.20;99.90;;;;;;5037827;28;20026;-76
2024/01/07 01:18:04;;;;;;;11.18;4.60;;;1.20;99.90;;;;;;5036447;28;20029;-76
2024/01/07 01:20:30;;;;;;;10.68;5.00;;;1.20;99.90;;;;;;5038115;28;20026;-76
2024/01/07 01:22:56;;;;;;;10.57;4.22;;;1.20;99.90;;;;;;5037895;28;20075;-76
2024/01/07 01:25:21;;;;;;;8.73;4.03;;;1.20;99.90;;;;;;5037902;28;20061;-76
2024/01/07 01:27:47;;;;;;;11.25;4.82;;;1.20;99.90;;;;;;5037139;28;20061;-76
2024/01/07 01:30:13;;;;;;;9.88;3.88;;;1.20;99.90;;;;;;5036897;28;20025;-75
2024/01/07 01:32:39;;;;;;;10.77;4.68;;;1.20;99.90;;;;;;5038412;28;20024;-75
2024/01/07 01:35:05;;;;;;;11.07;4.18;;;1.20;99.90;;;;;;5036570;28;20022;-76
2024/01/07 01:37:32;;;;;;;8.00;4.13;;;1.20;99.90;;;;;;5038129;28;20024;-76
2024/01/07 01:39:58;;;;;;;8.00;4.43;;;1.20;99.90;;;;;;5036362;28;20421;-76
2024/01/07 01:42:24;;;;;;;9.57;4.85;;;1.20;99.90;;;;;;5036924;28;20512;-76
2024/01/07 01:44:50;;;;;;;8.90;3.75;;;1.20;99.90;;;;;;5040196;28;20032;-76
2024/01/07 01:47:16;;;;;;;8.60;4.10;;;1.10;99.90;;;;;;5040064;28;20031;-76
2024/01/07 01:49:42;;;;;;;11.63;4.53;;;1.20;99.90;;;;;;5041679;28;20112;-76
2024/01/07 01:52:09;;;;;;;11.80;4.43;;;1.20;99.90;;;;;;5041512;28;20026;-76
2024/01/07 01:54:35;;;;;;;9.63;4.47;;;1.20;99.90;;;;;;5041488;28;20018;-75
2024/01/07 01:57:01;;;;;;;10.18;4.25;;;1.20;99.90;;;;;;5041572;28;20413;-75
2024/01/07 01:59:28;;;;;;;8.80;4.47;;;1.20;99.90;;;;;;5040633;28;20033;-75
2024/01/07 02:01:55;;;;;;;8.25;4.45;;;1.20;99.90;;;;;;5039920;28;20025;-75
2024/01/07 02:04:20;;;;;;;7.70;3.95;;;1.20;99.90;;;;;;5041026;28;20041;-75
2024/01/07 02:06:46;;;;;;;10.55;4.75;;;1.20;99.90;;;;;;5040613;28;20029;-75
2024/01/07 02:09:12;;;;;;;9.80;4.65;;;1.30;99.90;;;;;;5041119;28;20026;-74
2024/01/07 02:11:37;;;;;;;8.55;4.15;;;1.20;99.90;;;;;;5039918;28;20043;-75
2024/01/07 02:14:03;;;;;;;11.52;4.03;;;1.30;99.90;;;;;;5040705;28;20025;-74
2024/01/07 02:16:28;;;;;;;10.20;4.13;;;1.30;99.90;;;;;;5040821;28;20431;-74
2024/01/07 02:18:54;;;;;;;11.05;4.70;;;1.30;99.90;;;;;;5040208;28;20030;-75
2024/01/07 02:21:20;;;;;;;10.52;4.38;;;1.20;99.90;;;;;;5040295;28;20026;-75
2024/01/07 02:23:45;;;;;;;10.95;4.57;;;1.20;99.90;;;;;;5041396;28;20041;-74
2024/01/07 02:26:11;;;;;;;12.63;5.38;;;1.20;99.90;;;;;;5040486;28;20503;-74
2024/01/07 02:28:37;;;;;;;15.68;4.60;;;1.20;99.90;;;;;;5041526;28;20030;-74
2024/01/07 02:31:06;;;;;;;13.75;4.93;;;;;;;;;;5040748;28;20033;-74
2024/01/07 02:33:32;;;;;;;14.30;5.85;;;1.20;99.90;;;;;;5041129;28;20045;-75
2024/01/07 02:35:57;;;;;;;13.80;5.75;;;1.20;99.90;;;;;;5040598;28;20025;-76
2024/01/07 02:38:23;;;;;;;13.90;4.78;;;1.20;99.90;;;;;;5038507;28;20021;-76
2024/01/07 02:40:49;;;;;;;16.13;6.47;;;1.20;99.90;;;;;;5039074;28;20088;-75
2024/01/07 02:43:14;;;;;;;14.50;6.13;;;1.20;99.90;;;;;;5039682;28;20107;-75
2024/01/07 02:45:40;;;;;;;14.80;5.93;;;1.20;99.90;;;;;;5041275;28;20061;-75
2024/01/07 02:48:06;;;;;;;16.20;5.75;;;1.20;99.90;;;;;;5040031;28;20070;-75
2024/01/07 02:50:32;;;;;;;17.38;6.55;;;1.20;99.90;;;;;;5039196;28;20032;-75
2024/01/07 02:52:58;;;;;;;17.55;7.00;;;1.20;99.90;;;;;;5040930;28;20491;-75
2024/01/07 02:55:23;;;;;;;15.80;7.15;;;1.20;99.90;;;;;;5040595;28;20021;-80
2024/01/07 02:57:49;;;;;;;16.17;6.53;;;1.20;99.90;;;;;;5040678;28;20100;-76
2024/01/07 03:00:15;;;;;;;14.23;6.28;;;1.20;99.90;;;;;;5038954;28;20031;-77
2024/01/07 03:02:41;;;;;;;13.75;6.20;;;1.20;99.90;;;;;;5040260;28;20539;-77
2024/01/07 03:05:07;;;;;;;15.35;6.00;;;1.10;99.90;;;;;;5040698;28;20053;-77
2024/01/07 03:07:32;;;;;;;15.20;5.95;;;1.20;99.90;;;;;;5039804;28;20504;-78
2024/01/07 03:09:58;;;;;;;15.60;5.70;;;1.20;99.90;;;;;;5041075;28;20033;-79
2024/01/07 03:12:24;;;;;;;15.30;5.63;;;;;;;;;;5041163;28;20036;-78
2024/01/07 03:14:50;;;;;;;14.57;5.78;;;1.20;99.90;;;;;;5039808;28;20032;-79
2024/01/07 03:17:17;;;;;;;14.35;5.45;;;1.20;99.90;;;;;;5040952;28;20117;-79
2024/01/07 03:19:43;;;;;;;15.52;5.07;;;1.20;99.90;;;;;;5038782;28;20120;-79
2024/01/07 03:22:08;;;;;;;13.65;6.03;;;1.20;99.90;;;;;;5040397;28;20025;-79
2024/01/07 03:24:34;;;;;;;14.48;5.78;;;1.70;99.90;;;;;;5039110;28;20032;-79
2024/01/07 03:27:00;;;;;;;13.68;6.43;;;1.20;99.90;;;;;;5039110;28;20028;-78
2024/01/07 03:29:29;;;;;;;13.25;5.18;;;1.20;99.90;;;;;;5039256;28;20041;-78
2024/01/07 03:31:54;;;;;;;13.13;5.63;;;1.20;99.90;;;;;;5039120;28;20067;-78
2024/01/07 03:34:21;;;;;;;16.98;5.53;;;;;;;;;;5038238;28;20017;-79
2024/01/07 03:36:46;;;;;;;11.32;5.20;;;1.20;99.90;;;;;;5039981;28;20100;-79
2024/01/07 03:39:12;;;;;;;13.82;5.55;;;1.10;99.90;;;;;;5040555;28;20067;-78
2024/01/07 03:41:38;;;;;;;17.38;6.95;;;;;;;;;;5040889;28;20491;-79
2024/01/07 03:44:04;;;;;;;13.45;5.88;;;1.10;99.90;;;;;;5040432;28;20021;-77
2024/01/07 03:46:30;;;;;;;16.13;6.40;;;1.10;99.90;;;;;;5040623;28;20025;-77
2024/01/07 03:48:56;;;;;;;12.20;5.53;;;1.20;99.90;;;;;;5039383;28;20489;-77
2024/01/07 03:51:21;;;;;;;13.40;5.50;;;1.20;99.90;;;;;;5039479;28;20030;-77
2024/01/07 03:53:47;;;;;;;17.25;5.80;;;1.20;99.90;;;;;;5039430;28;20449;-76
2024/01/07 03:56:12;;;;;;;15.38;6.00;;;1.10;99.90;;;;;;5037750;28;20029;-77
2024/01/07 03:58:38;;;;;;;14.88;5.97;;;1.20;99.90;;;;;;5039830;28;20038;-77
2024/01/07 04:01:04;;;;;;;15.43;6.53;;;1.10;99.90;;;;;;5038684;28;20021;-77
2024/01/07 04:03:30;;;;;;;16.63;6.40;;;1.10;99.90;;;;;;5039895;28;20104;-76
2024/01/07 04:05:56;;;;;;;13.23;5.63;;;1.10;99.90;;;;;;5040109;28;20072;-77
2024/01/07 04:08:21;;;;;;;15.93;6.78;;;1.10;99.90;;;;;;5039683;28;20033;-76
2024/01/07 04:10:47;;;;;;;17.15;7.20;;;1.10;99.90;;;;;;5039194;28;20036;-76
2024/01/07 04:13:13;;;;;;;15.23;6.45;;;1.20;99.90;;;;;;5039250;28;20551;-76
2024/01/07 04:15:38;;;;;;;16.63;6.60;;;1.20;99.90;;;;;;5039375;28;20579;-77
2024/01/07 04:18:04;;;;;;;16.90;7.35;;;1.20;99.90;;;;;;5039958;28;20112;-77
2024/01/07 04:20:31;;;;;;;14.63;5.97;;;1.20;99.90;;;;;;5039087;28;20079;-77
2024/01/07 04:22:57;;;;;;;20.60;7.25;;;1.10;99.90;;;;;;5039383;28;20032;-77
2024/01/07 04:25:26;;;;;;;18.77;7.20;;;1.10;99.90;;;;;;5038863;28;20037;-77
2024/01/07 04:27:52;;;;;;;21.92;7.20;;;1.10;99.90;;;;;;5038804;28;20041;-77
2024/01/07 04:30:18;;;;;;;19.70;7.78;;;1.10;99.90;;;;;;5037042;28;20044;-78
2024/01/07 04:32:43;;;;;;;18.67;7.68;;;1.10;99.90;;;;;;5037967;28;20025;-77
2024/01/07 04:35:09;;;;;;;23.95;7.78;;;1.10;99.90;;;;;;5039142;28;20029;-77
2024/01/07 04:37:35;;;;;;;20.17;7.97;;;1.00;99.90;;;;;;5039061;28;20108;-77
2024/01/07 04:40:02;;;;;;;22.05;8.25;;;1.00;99.90;;;;;;5039385;28;20110;-78
2024/01/07 04:42:28;;;;;;;17.35;7.57;;;1.00;99.90;;;;;;5038819;28;20021;-79
2024/01/07 04:44:54;;;;;;;20.38;8.55;;;1.00;99.90;;;;;;5039329;28;20034;-79
2024/01/07 04:47:28;;;;;;;17.30;7.60;;;1.00;99.90;;;;;;5039191;28;20068;-79
2024/01/07 04:49:54;;;;;;;18.92;7.20;;;1.30;99.90;;;;;;5037420;28;20079;-79
2024/01/07 04:52:21;;;;;;;18.92;7.75;;;1.00;99.90;;;;;;5037185;28;20026;-79
2024/01/07 04:54:46;;;;;;;21.80;7.18;;;1.00;99.90;;;;;;5037858;28;20029;-79
2024/01/07 04:57:12;;;;;;;19.15;7.90;;;1.10;99.90;;;;;;5037837;28;20025;-79
2024/01/07 04:59:37;;;;;;;16.63;6.70;;;1.00;99.90;;;;;;5038627;28;20075;-79
2024/01/07 05:02:03;;;;;;;15.05;6.65;;;1.10;99.90;;;;;;5037605;28;20033;-78
2024/01/07 05:04:29;;;;;;;15.20;6.88;;;1.00;99.90;;;;;;5037414;28;20022;-79
2024/01/07 05:06:54;;;;;;;14.63;6.10;;;1.00;99.90;;;;;;5039023;28;20167;-78
2024/01/07 05:09:20;;;;;;;16.80;6.63;;;1.00;99.90;;;;;;5037399;28;20025;-79
2024/01/07 05:11:46;;;;;;;14.75;5.95;;;;;;;;;;5037570;28;20484;-80
2024/01/07 05:14:12;;;;;;;14.50;6.38;;;1.00;99.90;;;;;;5038635;28;20095;-79
2024/01/07 05:16:37;;;;;;;11.32;5.43;;;1.00;99.90;;;;;;5039309;28;20021;-78
2024/01/07 05:19:03;;;;;;;14.82;6.03;;;1.00;99.90;;;;;;5037651;28;20013;-79
2024/01/07 05:21:29;;;;;;;13.23;5.60;;;1.00;99.90;;;;;;5038271;28;20033;-79
2024/01/07 05:23:54;;;;;;;16.85;6.63;;;1.00;99.90;;;;;;5037395;28;20028;-79
2024/01/07 05:26:20;;;;;;;14.80;5.82;;;1.00;99.90;;;;;;5038033;28;20025;-78
2024/01/07 05:28:46;;;;;;;12.00;5.72;;;1.00;99.90;;;;;;5036827;28;20026;-79
2024/01/07 05:31:18;;;;;;;15.32;6.25;;;1.10;99.90;;;;;;5038118;28;20030;-78
2024/01/07 05:33:45;;;;;;;14.10;5.80;;;2.50;99.90;;;;;;5046770;28;20032;-78
2024/01/07 05:36:14;;;;;;;14.07;5.72;;;1.00;99.90;;;;;;5040105;28;20377;-79
2024/01/07 05:38:43;;;;;;;15.30;5.53;;;1.00;99.90;;;;;;5038727;28;20048;-79
2024/01/07 05:41:09;;;;;;;11.77;5.22;;;1.10;99.90;;;;;;5037707;28;20033;-79
2024/01/07 05:43:36;;;;;;;11.43;4.72;;;1.00;99.90;;;;;;5039657;28;20029;-79
2024/01/07 05:46:03;;;;;;;12.27;5.35;;;1.00;99.90;;;;;;5039923;28;20043;-79
2024/01/07 05:48:45;;;;;;;14.38;5.63;;;1.00;99.90;;;;;;5038922;28;20101;-79
2024/01/07 05:51:12;;;;;;;12.40;5.40;;;1.00;99.90;;;;;;5038017;28;20029;-79
2024/01/07 05:53:37;;;;;;;12.65;5.78;;;0.90;99.90;;;;;;5037367;28;20018;-79
2024/01/07 05:56:04;;;;;;;15.88;6.07;;;;;;;;;;5037955;28;20026;-79
2024/01/07 05:58:29;;;;;;;10.60;5.13;;;1.00;99.90;;;;;;5036559;28;20032;-79
2024/01/07 06:00:55;;;;;;;13.88;5.38;;;;;;;;;;5037988;28;20025;-79
2024/01/07 06:03:21;;;;;;;12.07;5.47;;;;;;;;;;5038674;28;20113;-79
2024/01/07 06:05:47;;;;;;;10.43;5.13;;;1.10;99.90;;;;;;5037467;28;20057;-80
2024/01/07 06:08:15;;;;;;;12.73;5.68;;;1.10;99.90;;;;;;5038493;28;20034;-79
2024/01/07 06:10:41;;;;;;;15.38;5.72;;;1.10;99.90;;;;;;5036206;28;20053;-78
2024/01/07 06:13:07;;;;;;;14.52;6.05;;;1.10;99.90;;;;;;5036375;28;20018;-75
2024/01/07 06:15:32;;;;;;;15.60;6.22;;;1.20;99.90;;;;;;5038148;28;20033;-76
2024/01/07 06:17:58;;;;;;;13.60;5.05;;;1.20;99.90;;;;;;5035925;28;20021;-76
2024/01/07 06:20:24;;;;;;;12.90;5.75;;;1.60;99.90;;;;;;5037499;28;20060;-76
2024/01/07 06:22:50;;;;;;;14.05;5.72;;;1.20;99.90;;;;;;5037503;28;20021;-76
2024/01/07 06:25:16;;;;;;;14.63;5.72;;;1.10;99.90;;;;;;5036395;28;20021;-76
2024/01/07 06:27:41;;;;;;;11.77;5.80;;;1.10;99.90;;;;;;5037627;28;20034;-76
2024/01/07 06:30:08;;;;;;;14.43;5.57;;;1.10;99.90;;;;;;5038761;28;20028;-76
2024/01/07 06:32:34;;;;;;;13.57;5.90;;;1.10;99.90;;;;;;5040852;28;20147;-75
2024/01/07 06:34:59;;;;;;;13.93;5.63;;;1.10;99.90;;;;;;5040846;28;20060;-75
2024/01/07 06:37:25;;;;;;;13.07;5.88;;;1.10;99.90;;;;;;5043735;28;20018;-76
2024/01/07 06:39:51;;;;;;;11.75;5.55;;;2.70;99.90;;;;;;5042079;28;20104;-76
2024/01/07 06:42:17;;;;;;;11.38;5.20;;;1.10;99.90;;;;;;5041110;28;20025;-76
2024/01/07 06:44:42;;;;;;;11.82;5.63;;;1.00;99.90;;;;;;5040841;28;20395;-76
2024/01/07 06:47:08;;;;;;;11.23;5.28;;;1.10;99.90;;;;;;5041066;28;20026;-76
2024/01/07 06:49:34;;;;;;;9.88;4.72;;;1.10;99.90;;;;;;5041289;28;20033;-76
2024/01/07 06:51:59;;;;;;;15.45;5.35;;;1.10;99.90;;;;;;5040257;28;20110;-76
2024/01/07 06:54:25;;;;;;;9.93;4.78;;;1.10;99.90;;;;;;5040328;28;20022;-76
2024/01/07 06:56:54;;;;;;;11.73;4.80;;;1.00;99.90;;;;;;5041268;28;20022;-76
2024/01/07 06:59:19;;;;;;;11.07;5.05;;;1.00;99.90;;;;;;5039155;28;20026;-76
2024/01/07 07:01:45;;;;;;;12.43;5.78;;;1.00;99.90;;;;;;5040300;28;20396;-75
2024/01/07 07:04:11;;;;;;;11.02;4.65;;;1.00;99.90;;;;;;5039283;28;20024;-75
2024/01/07 07:06:36;;;;;;;14.40;5.28;;;1.00;99.90;;;;;;5040829;28;20081;-75
2024/01/07 07:09:02;;;;;;;9.82;4.32;;;1.10;99.90;;;;;;5039838;28;20026;-75
2024/01/07 07:11:28;;;;;;;8.95;4.40;;;1.00;99.90;;;;;;5039709;28;20100;-75
2024/01/07 07:13:53;;;;;;;11.50;4.90;;;1.10;99.90;;;;;;5039201;28;20029;-74
2024/01/07 07:16:19;;;;;;;11.50;5.25;;;1.10;99.90;;;;;;5041150;28;20025;-75
2024/01/07 07:18:45;;;;;;;9.02;4.38;;;1.10;99.90;;;;;;5038655;28;20366;-76
2024/01/07 07:21:10;;;;;;;11.90;5.05;;;1.10;99.90;;;;;;5039389;28;20033;-76
2024/01/07 07:23:36;;;;;;;13.48;5.15;;;1.10;99.90;;;;;;5040347;28;20029;-76
2024/01/07 07:26:02;;;;;;;14.90;5.50;;;1.10;99.90;;;;;;5040106;28;20105;-75
2024/01/07 07:28:27;;;;;;;10.25;4.82;;;1.10;99.90;;;;;;5039454;28;20116;-75
2024/01/07 07:30:53;;;;;;;11.13;4.80;;;1.10;99.90;;;;;;5038390;28;20033;-76
2024/01/07 07:33:19;;;;;;;16.10;5.05;;;1.00;99.90;;;;;;5039762;28;20053;-79
2024/01/07 07:35:46;;;;;;;13.55;5.30;;;1.00;99.90;;;;;;5039753;28;20017;-79
2024/01/07 07:38:11;;;;;;;12.95;4.95;;;0.90;99.90;;;;;;5040101;28;20021;-79
2024/01/07 07:40:37;;;;;;;10.98;4.57;;;0.90;99.90;;;;;;5038473;28;20029;-79
2024/01/07 07:43:03;;;;;;;13.75;4.53;;;0.90;99.90;;;;;;5038188;28;20030;-79
2024/01/07 07:45:29;;;;;;;10.60;4.25;;;;;;;;;;5039060;28;20025;-79
2024/01/07 07:47:55;;;;;;;7.88;3.95;;;;;;;;;;5037654;28;20029;-79
2024/01/07 07:50:21;;;;;;;11.70;4.28;;;0.90;99.90;;;;;;5039457;28;20500;-78
2024/01/07 07:52:47;;;;;;;10.23;3.95;;;0.90;99.90;;;;;;5037763;28;20022;-79
2024/01/07 07:55:15;;;;;;;12.13;4.68;;;0.90;99.90;;;;;;5037312;28;20059;-79
2024/01/07 07:57:41;;;;;;;11.90;4.22;;;0.80;99.90;;;;;;5039345;28;20014;-79
2024/01/07 08:00:07;;;;;;;9.80;4.93;;;0.90;99.90;;;;;;5038023;28;20079;-79
2024/01/07 08:02:33;;;;;;;14.25;3.75;;;0.80;99.90;;;;;;5038248;28;20033;-79
2024/01/07 08:05:01;;;;;;;9.27;4.10;;;0.80;99.90;;;;;;5038906;28;20179;-79
2024/01/07 08:07:27;;;;;;;8.65;3.72;;;;;;;;;;5038880;28;20496;-79
2024/01/07 08:09:53;;;;;;;10.05;4.50;;;0.80;99.90;;;;;;5037602;28;20030;-79
2024/01/07 08:12:19;;;;;;;11.32;4.28;;;;;;;;;;5037709;28;20021;-79
2024/01/07 08:14:45;;;;;;;10.52;4.22;;;;;;;;;;5038686;28;20488;-79
2024/01/07 08:17:11;;;;;;;13.82;4.85;;;0.80;99.90;;;;;;5037803;28;20032;-78
2024/01/07 08:19:37;;;;;;;9.02;4.10;;;;;;;;;;5038043;28;20469;-79
2024/01/07 08:22:04;;;;;;;8.73;4.13;;;;;;;;;;5037831;28;20029;-79
2024/01/07 08:24:30;;;;;;;11.43;4.38;;;;;;;;;;5037902;28;20052;-79
2024/01/07 08:26:56;;;;;;;14.30;4.78;;;0.70;99.90;;;;;;5038168;28;20029;-79
2024/01/07 08:29:21;;;;;;;8.57;4.43;;;0.70;99.90;;;;;;5037237;28;20028;-79
2024/01/07 08:31:47;;;;;;;11.02;5.13;;;0.80;99.90;;;;;;5037182;28;20044;-77
2024/01/07 08:34:13;;;;;;;13.98;5.28;;;0.70;99.90;;;;;;5038051;28;20033;-77
2024/01/07 08:36:38;;;;;;;8.73;4.35;;;0.70;99.90;;;;;;5038108;28;20026;-77
2024/01/07 08:39:04;;;;;;;11.10;5.10;;;0.70;99.90;;;;;;5038280;28;20021;-77
2024/01/07 08:41:30;;;;;;;10.73;4.55;;;0.70;99.90;;;;;;5036721;28;20116;-77
2024/01/07 08:43:55;;;;;;;12.02;4.47;;;0.70;99.90;;;;;;5036556;28;20404;-77
2024/01/07 08:46:24;;;;;;;9.52;4.05;;;0.70;99.90;;;;;;5036177;28;20037;-77
2024/01/07 08:48:50;;;;;;;9.95;4.05;;;;;;;;;;5036068;28;20469;-76
2024/01/07 08:51:15;;;;;;;7.63;3.85;;;0.70;99.90;;;;;;5037645;28;20065;-76
2024/01/07 08:53:41;;;;;;;8.55;4.40;;;0.70;99.90;;;;;;5036812;28;20072;-77
2024/01/07 08:56:07;;;;;;;10.32;4.40;;;0.70;99.90;;;;;;5037651;28;20049;-76
2024/01/07 08:58:33;;;;;;;8.45;4.10;;;0.80;99.90;;;;;;5037414;28;20040;-79
2024/01/07 09:00:58;;;;;;;9.88;4.22;;;0.80;99.90;;;;;;5037428;28;20108;-79
2024/01/07 09:03:27;;;;;;;7.95;3.90;;;0.80;99.90;;;;;;5035739;28;20112;-79
2024/01/07 09:05:52;;;;;;;8.00;3.80;;;0.70;99.90;;;;;;5036994;28;20068;-79
2024/01/07 09:08:18;;;;;;;6.82;3.47;;;;;;;;;;5037083;28;20029;-79
2024/01/07 09:10:44;;;;;;;9.10;3.85;;;0.70;99.90;;;;;;5036181;28;20519;-79
2024/01/07 09:13:10;;;;;;;8.18;3.88;;;;;;;;;;5037297;28;20025;-79
2024/01/07 09:15:36;;;;;;;8.73;3.72;;;0.70;99.90;;;;;;5035936;28;20029;-78
2024/01/07 09:18:01;;;;;;;12.48;3.90;;;0.60;99.90;;;;;;5040844;28;20034;-79
2024/01/07 09:20:30;;;;;;;11.02;3.30;;;0.60;99.90;;;;;;5037789;28;20026;-79
2024/01/07 09:22:56;;;;;;;9.32;3.88;;;0.60;99.90;;;;;;5041297;28;20010;-79
2024/01/07 09:25:21;;;;;;;9.10;3.63;;;0.60;99.90;;;;;;5036521;28;20021;-79
2024/01/07 09:27:47;;;;;;;11.18;3.95;;;0.60;99.90;;;;;;5036791;28;20064;-80
2024/01/07 09:30:14;;;;;;;10.57;3.95;;;0.60;99.90;;;;;;5037024;28;20029;-79
2024/01/07 09:32:41;;;;;;;9.73;3.75;;;0.60;99.90;;;;;;5037280;28;20018;-80
2024/01/07 09:35:07;;;;;;;8.40;3.95;;;0.60;99.90;;;;;;5036033;28;20033;-80
2024/01/07 09:37:33;;;;;;;9.98;4.50;;;0.60;99.90;;;;;;5036716;28;20021;-80
2024/01/07 09:39:58;;;;;;;7.72;3.33;;;0.60;99.90;;;;;;5038428;28;20068;-79
2024/01/07 09:42:24;;;;;;;10.60;4.20;;;0.60;99.90;;;;;;5036270;28;20021;-80
2024/01/07 09:44:51;;;;;;;12.75;4.03;;;0.60;99.90;;;;;;5037795;28;20017;-79
2024/01/07 09:47:17;;;;;;;7.85;4.10;;;0.60;99.90;;;;;;5038627;28;20029;-78
2024/01/07 09:49:43;;;;;;;7.07;3.22;;;0.60;99.90;;;;;;5040672;28;20037;-78
2024/01/07 09:52:10;;;;;;;12.00;4.38;;;0.60;99.90;;;;;;5038489;28;20037;-80
2024/01/07 09:54:40;;;;;;;6.57;2.90;;;0.60;99.90;;;;;;5041639;28;20021;-79
2024/01/07 09:57:23;;;;;;;6.43;2.63;;;0.70;99.90;;;;;;5039535;28;20045;-80
2024/01/07 09:59:50;;;;;;;9.98;3.58;;;0.70;99.90;;;;;;5036561;28;20021;-78
2024/01/07 10:02:16;;;;;;;9.18;3.13;;;;;;;;;;5037237;28;20080;-78
2024/01/07 10:04:42;;;;;;;6.00;2.80;;;0.70;99.90;;;;;;5037409;28;20079;-78
2024/01/07 10:07:11;;;;;;;6.72;2.42;;;0.70;99.90;;;;;;5042634;28;20400;-79
2024/01/07 10:09:42;;;;;;;5.18;2.30;;;0.70;99.90;;;;;;5040493;28;20022;-78
2024/01/07 10:12:12;;;;;;;7.43;2.13;;;0.70;99.90;;;;;;5040156;28;20101;-79
2024/01/07 10:14:40;;;;;;;6.55;2.00;;;;;;;;;;5042489;28;20014;-78
2024/01/07 10:17:16;;;;;;;7.75;1.77;;;0.80;99.90;;;;;;5040969;28;20437;-78
2024/01/07 10:19:46;;;;;;;11.20;2.30;;;0.80;99.90;;;;;;5042768;28;20153;-79
2024/01/07 10:22:13;;;;;;;6.57;1.48;;;0.80;99.90;;;;;;5041172;28;20026;-78
2024/01/07 10:24:40;;;;;;;5.40;1.73;;;0.90;99.90;;;;;;5040904;28;20396;-78
2024/01/07 10:27:07;;;;;;;4.15;1.73;;;0.90;99.90;;;;;;5040172;28;20018;-79
2024/01/07 10:29:33;;;;;;;5.22;1.92;;;1.00;99.90;;;;;;5041217;28;20025;-78
2024/01/07 10:32:02;;;;;;;11.10;2.58;;;1.00;99.90;;;;;;5040544;28;20048;-78
2024/01/07 10:34:33;;;;;;;4.88;1.58;;;1.00;99.90;;;;;;5040879;28;20097;-78
2024/01/07 10:37:00;;;;;;;7.32;1.30;;;1.00;99.90;;;;;;5039520;28;20018;-77
2024/01/07 10:39:25;;;;;;;4.63;1.15;;;1.00;99.90;;;;;;5039619;28;20084;-79
2024/01/07 10:41:56;;;;;;;1.92;0.70;;;1.00;99.90;;;;;;5042033;28;20053;-78
2024/01/07 10:44:22;;;;;;;3.10;1.25;;;1.00;99.90;;;;;;5040836;28;20029;-78
2024/01/07 10:46:48;;;;;;;3.10;1.20;;;1.00;99.90;;;;;;5041842;28;20389;-78
2024/01/07 10:49:23;;;;;;;4.13;1.17;;;1.10;99.90;;;;;;5042277;28;20001;-79
2024/01/07 10:52:11;;;;;;;5.10;1.10;;;1.20;99.90;;;;;;5041460;28;20550;-77
2024/01/07 10:54:37;;;;;;;6.60;0.90;;;;;;;;;;5049680;28;20045;-80
2024/01/07 10:57:21;;;;;;;3.70;1.10;;;1.20;99.90;;;;;;5043384;28;20026;-79
2024/01/07 10:59:49;;;;;;;2.40;0.68;;;1.30;99.90;;;;;;5038747;28;20027;-77
2024/01/07 11:02:15;;;;;;;3.20;1.23;;;1.30;99.90;;;;;;5039355;28;20500;-77
2024/01/07 11:04:44;;;;;;;2.92;1.10;;;1.40;99.90;;;;;;5040382;28;20025;-77
2024/01/07 11:07:38;;;;;;;3.58;0.80;;;1.40;99.90;;;;;;5038827;28;20033;-77
2024/01/07 11:10:08;;;;;;;2.63;0.60;;;1.40;99.90;;;;;;5041271;28;20061;-77
2024/01/07 11:12:34;;;;;;;2.65;0.80;;;1.50;99.90;;;;;;5038999;28;20440;-77
2024/01/07 11:15:00;;;;;;;4.95;0.45;;;1.50;99.90;;;;;;5040245;28;20071;-77
2024/01/07 11:17:37;;;;;;;2.40;0.68;;;1.50;99.90;;;;;;5039331;28;20076;-77
2024/01/07 11:20:12;;;;;;;2.28;0.60;;;1.40;99.90;;;;;;5040724;28;20029;-77
2024/01/07 11:22:38;;;;;;;2.15;0.60;;;1.50;99.90;;;;;;5038543;28;20142;-77
2024/01/07 11:25:31;;;;;;;3.80;0.52;;;1.40;99.90;;;;;;5039169;28;20504;-78
2024/01/07 11:27:58;;;;;;;3.15;0.50;;;1.50;99.90;;;;;;5039405;28;20025;-77
2024/01/07 11:30:25;;;;;;;0.85;0.30;;;1.50;99.90;;;;;;5039096;28;20025;-78
2024/01/07 11:33:00;;;;;;;1.63;0.40;;;1.50;99.90;;;;;;5038935;28;20082;-78
2024/01/07 11:35:54;;;;;;;2.30;0.50;;;1.60;99.90;;;;;;5037797;28;20092;-78
2024/01/07 11:38:21;;;;;;;3.60;0.73;;;1.60;99.90;;;;;;5038589;28;20028;-77
2024/01/07 11:40:49;;;;;;;1.77;0.30;;;1.70;99.90;;;;;;5039750;28;20559;-78
2024/01/07 11:43:18;;;;;;;2.50;0.40;;;1.80;99.90;;;;;;5038377;28;20499;-77
2024/01/07 11:45:44;;;;;;;1.85;0.20;;;1.80;99.90;;;;;;5037910;28;20021;-77
2024/01/07 11:48:10;;;;;;;1.80;0.22;;;1.80;99.90;;;;;;5038949;28;20373;-78
2024/01/07 11:50:36;;;;;;;2.03;0.70;;;;;;;;;;5040107;28;20022;-78
2024/01/07 11:53:02;;;;;;;1.98;0.40;;;1.90;99.90;;;;;;5038429;28;20025;-77
2024/01/07 11:55:29;;;;;;;2.67;0.73;;;2.00;99.90;;;;;;5039110;28;20109;-78
2024/01/07 11:57:58;;;;;;;1.23;0.20;;;2.10;99.90;;;;;;5039462;28;20028;-78
2024/01/07 12:00:23;;;;;;;0.93;0.20;;;3.00;99.90;;;;;;5038050;28;20525;-78
2024/01/07 12:02:49;;;;;;;2.90;0.38;;;3.70;99.90;;;;;;5037629;28;20029;-78
2024/01/07 12:05:15;;;;;;;1.40;0.22;;;2.40;99.90;;;;;;5037113;28;20029;-79
2024/01/07 12:07:42;;;;;;;5.10;0.25;;;2.40;99.90;;;;;;5037188;28;20017;-78
2024/01/07 12:10:11;;;;;;;1.75;0.15;;;2.30;99.90;;;;;;5037465;28;20036;-78
2024/01/07 12:12:41;;;;;;;1.33;0.20;;;2.20;99.90;;;;;;5038880;28;20021;-78
2024/01/07 12:15:08;;;;;;;1.25;0.20;;;2.10;99.90;;;;;;5038538;28;20080;-78
2024/01/07 12:17:34;;;;;;;2.72;0.20;;;2.10;99.90;;;;;;5036771;28;20033;-78
2024/01/07 12:20:00;;;;;;;2.92;0.20;;;2.00;99.90;;;;;;5037540;28;20512;-78
2024/01/07 12:22:29;;;;;;;0.35;0.10;;;2.00;99.90;;;;;;5037895;28;20123;-77
2024/01/07 12:25:06;;;;;;;2.17;0.40;;;2.00;99.90;;;;;;5037996;28;20034;-77
2024/01/07 12:27:31;;;;;;;2.17;0.43;;;2.10;99.90;;;;;;5037571;28;20496;-78
2024/01/07 12:29:58;;;;;;;1.15;0.00;;;2.10;99.90;;;;;;5037812;28;20021;-78
2024/01/07 12:32:27;;;;;;;1.65;0.10;;;2.10;99.90;;;;;;5037694;28;20124;-78
2024/01/07 12:34:52;;;;;;;;;;;2.30;99.90;;;;;;5037556;28;20014;-78
2024/01/07 12:37:18;;;;;;;0.82;0.13;;;2.30;99.90;;;;;;5037968;28;19995;-78
2024/01/07 12:39:44;;;;;;;2.33;0.10;;;2.30;99.90;;;;;;5037366;28;20018;-79
2024/01/07 12:42:09;;;;;;;1.48;0.10;;;2.60;99.90;;;;;;5036741;28;20053;-78
2024/01/07 12:44:38;;;;;;;0.30;0.00;;;2.60;99.90;;;;;;5036570;28;20032;-78
2024/01/07 12:47:04;;;;;;;1.30;0.00;;;2.70;99.90;;;;;;5037620;28;20485;-78
2024/01/07 12:49:29;;;;;;;0.95;0.15;;;2.70;99.90;;;;;;5036451;28;20037;-78
2024/01/07 12:51:55;;;;;;;0.50;0.00;;;2.60;99.90;;;;;;5036091;28;20041;-79
2024/01/07 12:54:23;;;;;;;0.40;0.00;;;;;;;;;;5037630;28;20495;-78